Anaconda, MT

4:46 PM MDT on August 30, 2015 (GMT -0600)
Warm Springs Ponds | | Change Station
CLOSE
Current Station
Personal Weather Station
Location: Opportunity, MT
Elevation: 4900 ft
Nearby Weather Stations

Elev 4900 ft 46.14 °N, 112.78 °W | Updated 37 seconds ago

Partly Cloudy
Partly Cloudy
79.2 °F
Feels Like 78 °F
N
14.0
Wind Variable Wind from South

Today
High -- | Low -- °F
--% Chance of Precip.
Yesterday
High -- | Low -- °F
Precip. -- in
6:48 AM 8:13 PM
Full, 98% visible
Pressure 29.70 in
Visibility 10.0 miles
Clouds Clear
Heat Index 78 °F
Dew Point 33 °F
Humidity 19%
Rainfall 0.02 in
Snow Depth Not available.
UV 6 out of 12
Pollen 8.10 out of 12
Air Quality Not available.
Flu Activity Not available.
METAR KBTM 302153Z AUTO 24010G22KT 10SM CLR 24/M01 A2988 RMK AO2 SLP055 T02441011
Pressure 29.70 in
Visibility 10.0 miles
Clouds Clear
Heat Index 78 °F
Dew Point 33 °F
Humidity 19%
Rainfall 0.02 in
Snow Depth Not available.
UV 6 out of 12
Pollen 8.10 out of 12
Air Quality Not available.
Flu Activity Not available.
METAR KBTM 302153Z AUTO 24010G22KT 10SM CLR 24/M01 A2988 RMK AO2 SLP055 T02441011

10-Day Weather Forecast

×

Almanac

Astronomy

Aug. 30, 2015 Rise Set
Actual Time
Civil Twilight
Nautical Twilight
Astronomical Twilight
Moon
Length of Visible Light
Length of Day
Tomorrow will be .
, % of the Moon is Illuminated

Today's Extremes

State Highs State Lows

Community

WunderPhotos

Upload Photos

1,851,075 photos uploaded!

WunderBlogs® & News

Nearby

Air Quality

  Air Quality AQ Index Pollutant
Not available.

Snow Depth

Station Depth Elevation

Earthquake Activity

City Distance Mag. Time & Date
Minimum magnitude displayed is 2.5.

Coastal Water Temperatures

Place Temperature

Stations

Nearby Weather Stations

Station Location Temp. Windchill Dew Point Humidity Wind Precip. Elev Updated Type